sensor_id;sensor_type;location;lat;lon;timestamp;temperature;humidity
909;DHT22;441;51.192;6.788;2023-05-10T00:02:00;23.00;94.80
909;DHT22;441;51.192;6.788;2023-05-10T00:04:27;23.00;94.90
909;DHT22;441;51.192;6.788;2023-05-10T00:06:54;23.00;94.80
909;DHT22;441;51.192;6.788;2023-05-10T00:09:21;23.00;94.80
909;DHT22;441;51.192;6.788;2023-05-10T00:11:48;23.00;94.90
909;DHT22;441;51.192;6.788;2023-05-10T00:14:16;23.00;94.80
909;DHT22;441;51.192;6.788;2023-05-10T00:16:43;23.00;94.90
909;DHT22;441;51.192;6.788;2023-05-10T00:19:11;23.00;94.80
909;DHT22;441;51.192;6.788;2023-05-10T00:21:37;23.00;94.80
909;DHT22;441;51.192;6.788;2023-05-10T00:24:05;23.00;94.90
909;DHT22;441;51.192;6.788;2023-05-10T00:26:32;23.00;94.90
909;DHT22;441;51.192;6.788;2023-05-10T00:28:58;22.90;94.90
909;DHT22;441;51.192;6.788;2023-05-10T00:31:27;23.00;95.00
909;DHT22;441;51.192;6.788;2023-05-10T00:33:54;23.00;94.90
909;DHT22;441;51.192;6.788;2023-05-10T00:36:21;23.00;95.00
909;DHT22;441;51.192;6.788;2023-05-10T00:38:48;23.00;94.90
909;DHT22;441;51.192;6.788;2023-05-10T00:41:15;22.90;94.90
909;DHT22;441;51.192;6.788;2023-05-10T00:43:42;23.00;95.00
909;DHT22;441;51.192;6.788;2023-05-10T00:46:09;23.00;94.90
909;DHT22;441;51.192;6.788;2023-05-10T00:48:37;22.90;94.90
909;DHT22;441;51.192;6.788;2023-05-10T00:51:05;22.90;94.90
909;DHT22;441;51.192;6.788;2023-05-10T00:53:33;22.90;94.90
909;DHT22;441;51.192;6.788;2023-05-10T00:56:01;22.90;95.00
909;DHT22;441;51.192;6.788;2023-05-10T00:58:28;22.90;95.00
909;DHT22;441;51.192;6.788;2023-05-10T01:00:56;22.90;94.90
909;DHT22;441;51.192;6.788;2023-05-10T01:03:24;22.90;94.90
909;DHT22;441;51.192;6.788;2023-05-10T01:05:53;22.90;94.90
909;DHT22;441;51.192;6.788;2023-05-10T01:08:20;22.90;94.90
909;DHT22;441;51.192;6.788;2023-05-10T01:10:47;22.90;94.90
909;DHT22;441;51.192;6.788;2023-05-10T01:13:23;22.90;94.90
909;DHT22;441;51.192;6.788;2023-05-10T01:15:55;22.80;94.90
909;DHT22;441;51.192;6.788;2023-05-10T01:18:23;22.90;94.90
909;DHT22;441;51.192;6.788;2023-05-10T01:21:10;22.80;94.80
909;DHT22;441;51.192;6.788;2023-05-10T01:23:52;22.80;94.80
909;DHT22;441;51.192;6.788;2023-05-10T01:29:40;22.80;94.80
909;DHT22;441;51.192;6.788;2023-05-10T01:32:23;22.80;94.80
909;DHT22;441;51.192;6.788;2023-05-10T01:34:57;22.80;94.90
909;DHT22;441;51.192;6.788;2023-05-10T01:37:31;22.80;94.80
909;DHT22;441;51.192;6.788;2023-05-10T01:40:03;22.80;94.90
909;DHT22;441;51.192;6.788;2023-05-10T01:42:40;22.80;94.90
909;DHT22;441;51.192;6.788;2023-05-10T01:45:15;22.80;94.90
909;DHT22;441;51.192;6.788;2023-05-10T01:47:50;22.80;94.90
909;DHT22;441;51.192;6.788;2023-05-10T01:50:23;22.80;94.90
909;DHT22;441;51.192;6.788;2023-05-10T01:52:54;22.70;94.90
909;DHT22;441;51.192;6.788;2023-05-10T01:55:25;22.70;94.90
909;DHT22;441;51.192;6.788;2023-05-10T01:57:59;22.80;94.90
909;DHT22;441;51.192;6.788;2023-05-10T02:00:27;22.70;94.90
909;DHT22;441;51.192;6.788;2023-05-10T02:02:57;22.70;95.00
909;DHT22;441;51.192;6.788;2023-05-10T02:05:25;22.70;94.90
909;DHT22;441;51.192;6.788;2023-05-10T02:07:52;22.70;95.00
909;DHT22;441;51.192;6.788;2023-05-10T02:10:21;22.70;94.90
909;DHT22;441;51.192;6.788;2023-05-10T02:12:48;22.70;94.90
909;DHT22;441;51.192;6.788;2023-05-10T02:15:19;22.70;94.90
909;DHT22;441;51.192;6.788;2023-05-10T02:17:47;22.70;94.90
909;DHT22;441;51.192;6.788;2023-05-10T02:20:17;22.70;94.90
909;DHT22;441;51.192;6.788;2023-05-10T02:22:47;22.70;95.00
909;DHT22;441;51.192;6.788;2023-05-10T02:25:16;22.70;95.10
909;DHT22;441;51.192;6.788;2023-05-10T02:27:44;22.70;95.10
909;DHT22;441;51.192;6.788;2023-05-10T02:30:13;22.70;95.10
909;DHT22;441;51.192;6.788;2023-05-10T02:32:41;22.70;95.00
909;DHT22;441;51.192;6.788;2023-05-10T02:35:09;22.70;95.00
909;DHT22;441;51.192;6.788;2023-05-10T02:37:38;22.70;95.00
909;DHT22;441;51.192;6.788;2023-05-10T02:40:07;22.70;95.00
909;DHT22;441;51.192;6.788;2023-05-10T02:42:37;22.70;95.00
909;DHT22;441;51.192;6.788;2023-05-10T02:45:08;22.70;94.90
909;DHT22;441;51.192;6.788;2023-05-10T02:47:37;22.70;94.90
909;DHT22;441;51.192;6.788;2023-05-10T02:50:05;22.70;95.00
909;DHT22;441;51.192;6.788;2023-05-10T02:52:40;22.70;95.00
909;DHT22;441;51.192;6.788;2023-05-10T02:55:09;22.60;95.00
909;DHT22;441;51.192;6.788;2023-05-10T02:57:41;22.70;95.00
909;DHT22;441;51.192;6.788;2023-05-10T03:00:10;22.70;95.00
909;DHT22;441;51.192;6.788;2023-05-10T03:02:37;22.70;95.00
909;DHT22;441;51.192;6.788;2023-05-10T03:05:05;22.60;94.90
909;DHT22;441;51.192;6.788;2023-05-10T03:07:33;22.70;94.90
909;DHT22;441;51.192;6.788;2023-05-10T03:10:02;22.60;94.90
909;DHT22;441;51.192;6.788;2023-05-10T03:12:38;22.60;94.90
909;DHT22;441;51.192;6.788;2023-05-10T03:15:13;22.60;94.90
909;DHT22;441;51.192;6.788;2023-05-10T03:17:47;22.60;94.90
909;DHT22;441;51.192;6.788;2023-05-10T03:20:21;22.70;94.90
909;DHT22;441;51.192;6.788;2023-05-10T03:22:53;22.60;94.90
909;DHT22;441;51.192;6.788;2023-05-10T03:25:23;22.60;94.90
909;DHT22;441;51.192;6.788;2023-05-10T03:27:52;22.60;94.90
909;DHT22;441;51.192;6.788;2023-05-10T03:30:19;22.60;94.90
909;DHT22;441;51.192;6.788;2023-05-10T03:32:46;22.60;95.30
909;DHT22;441;51.192;6.788;2023-05-10T03:35:13;22.60;94.90
909;DHT22;441;51.192;6.788;2023-05-10T03:37:40;22.60;94.90
909;DHT22;441;51.192;6.788;2023-05-10T03:40:08;22.60;94.90
909;DHT22;441;51.192;6.788;2023-05-10T03:42:36;22.60;94.90
909;DHT22;441;51.192;6.788;2023-05-10T03:45:04;22.60;94.90
909;DHT22;441;51.192;6.788;2023-05-10T03:47:31;22.60;94.90
909;DHT22;441;51.192;6.788;2023-05-10T03:49:58;22.60;94.90
909;DHT22;441;51.192;6.788;2023-05-10T03:52:25;22.60;94.90
909;DHT22;441;51.192;6.788;2023-05-10T03:54:52;22.60;94.90
909;DHT22;441;51.192;6.788;2023-05-10T03:57:18;22.60;94.90
909;DHT22;441;51.192;6.788;2023-05-10T03:59:47;22.60;94.90
909;DHT22;441;51.192;6.788;2023-05-10T04:02:14;22.50;94.90
909;DHT22;441;51.192;6.788;2023-05-10T04:04:40;22.60;94.80
909;DHT22;441;51.192;6.788;2023-05-10T04:07:07;22.60;94.90
909;DHT22;441;51.192;6.788;2023-05-10T04:09:35;22.50;94.90
909;DHT22;441;51.192;6.788;2023-05-10T04:12:03;22.50;94.90
909;DHT22;441;51.192;6.788;2023-05-10T04:14:30;22.50;94.90
909;DHT22;441;51.192;6.788;2023-05-10T04:16:58;22.60;94.90
909;DHT22;441;51.192;6.788;2023-05-10T04:19:29;22.60;94.80
909;DHT22;441;51.192;6.788;2023-05-10T04:21:56;22.50;94.80
909;DHT22;441;51.192;6.788;2023-05-10T04:24:22;22.60;94.80
909;DHT22;441;51.192;6.788;2023-05-10T04:26:49;22.60;94.80
909;DHT22;441;51.192;6.788;2023-05-10T04:29:16;22.50;94.80
909;DHT22;441;51.192;6.788;2023-05-10T04:31:43;22.50;94.80
909;DHT22;441;51.192;6.788;2023-05-10T04:34:11;22.50;94.80
909;DHT22;441;51.192;6.788;2023-05-10T04:36:38;22.50;94.80
909;DHT22;441;51.192;6.788;2023-05-10T04:39:06;22.50;95.20
909;DHT22;441;51.192;6.788;2023-05-10T04:41:32;22.50;94.90
909;DHT22;441;51.192;6.788;2023-05-10T04:44:00;22.50;94.90
909;DHT22;441;51.192;6.788;2023-05-10T04:46:26;22.50;94.90
909;DHT22;441;51.192;6.788;2023-05-10T04:48:53;22.50;94.90
909;DHT22;441;51.192;6.788;2023-05-10T04:51:22;22.50;94.90
909;DHT22;441;51.192;6.788;2023-05-10T04:53:48;22.50;95.00
909;DHT22;441;51.192;6.788;2023-05-10T04:56:16;22.40;94.90
909;DHT22;441;51.192;6.788;2023-05-10T04:58:43;22.50;95.00
909;DHT22;441;51.192;6.788;2023-05-10T05:01:10;22.40;95.00
909;DHT22;441;51.192;6.788;2023-05-10T05:03:37;22.50;95.10
909;DHT22;441;51.192;6.788;2023-05-10T05:06:04;22.50;95.10
909;DHT22;441;51.192;6.788;2023-05-10T05:08:32;22.50;95.10
909;DHT22;441;51.192;6.788;2023-05-10T05:10:59;22.50;95.10
909;DHT22;441;51.192;6.788;2023-05-10T05:13:26;22.50;96.30
909;DHT22;441;51.192;6.788;2023-05-10T05:15:53;22.60;95.70
909;DHT22;441;51.192;6.788;2023-05-10T05:18:20;22.70;96.60
909;DHT22;441;51.192;6.788;2023-05-10T05:20:47;22.70;96.90
909;DHT22;441;51.192;6.788;2023-05-10T05:23:14;22.70;96.50
909;DHT22;441;51.192;6.788;2023-05-10T05:25:42;22.80;97.40
909;DHT22;441;51.192;6.788;2023-05-10T05:28:09;22.80;96.40
909;DHT22;441;51.192;6.788;2023-05-10T05:30:36;22.80;96.40
909;DHT22;441;51.192;6.788;2023-05-10T05:33:02;22.90;96.30
909;DHT22;441;51.192;6.788;2023-05-10T05:35:29;22.90;96.20
909;DHT22;441;51.192;6.788;2023-05-10T05:37:56;22.90;95.60
909;DHT22;441;51.192;6.788;2023-05-10T05:40:23;23.00;95.80
909;DHT22;441;51.192;6.788;2023-05-10T05:42:51;23.00;95.50
909;DHT22;441;51.192;6.788;2023-05-10T05:45:18;23.00;95.50
909;DHT22;441;51.192;6.788;2023-05-10T05:47:46;23.00;95.30
909;DHT22;441;51.192;6.788;2023-05-10T05:50:13;23.10;95.10
909;DHT22;441;51.192;6.788;2023-05-10T05:52:40;23.10;95.00
909;DHT22;441;51.192;6.788;2023-05-10T05:55:07;23.10;94.80
909;DHT22;441;51.192;6.788;2023-05-10T05:57:34;23.20;95.00
909;DHT22;441;51.192;6.788;2023-05-10T06:00:03;23.20;95.30
909;DHT22;441;51.192;6.788;2023-05-10T06:02:30;23.20;95.30
909;DHT22;441;51.192;6.788;2023-05-10T06:04:58;23.20;95.30
909;DHT22;441;51.192;6.788;2023-05-10T06:07:25;23.30;95.10
909;DHT22;441;51.192;6.788;2023-05-10T06:09:52;23.30;94.90
909;DHT22;441;51.192;6.788;2023-05-10T06:12:19;23.30;94.70
909;DHT22;441;51.192;6.788;2023-05-10T06:14:46;23.30;94.50
909;DHT22;441;51.192;6.788;2023-05-10T06:17:14;23.30;94.40
909;DHT22;441;51.192;6.788;2023-05-10T06:19:41;23.40;94.70
909;DHT22;441;51.192;6.788;2023-05-10T06:22:08;23.40;94.70
909;DHT22;441;51.192;6.788;2023-05-10T06:24:35;23.40;94.30
909;DHT22;441;51.192;6.788;2023-05-10T06:27:02;23.40;94.70
909;DHT22;441;51.192;6.788;2023-05-10T06:29:29;23.50;94.60
909;DHT22;441;51.192;6.788;2023-05-10T06:31:56;23.40;94.60
909;DHT22;441;51.192;6.788;2023-05-10T06:34:25;23.50;94.60
909;DHT22;441;51.192;6.788;2023-05-10T06:36:52;23.40;94.70
909;DHT22;441;51.192;6.788;2023-05-10T06:39:19;23.50;94.40
909;DHT22;441;51.192;6.788;2023-05-10T06:41:46;23.50;94.30
909;DHT22;441;51.192;6.788;2023-05-10T06:44:13;23.40;94.50
909;DHT22;441;51.192;6.788;2023-05-10T06:46:40;23.40;94.50
909;DHT22;441;51.192;6.788;2023-05-10T06:49:07;23.40;94.30
909;DHT22;441;51.192;6.788;2023-05-10T06:51:35;23.40;94.10
909;DHT22;441;51.192;6.788;2023-05-10T06:54:02;23.50;93.80
909;DHT22;441;51.192;6.788;2023-05-10T06:56:29;23.50;93.70
909;DHT22;441;51.192;6.788;2023-05-10T06:58:56;23.50;93.60
909;DHT22;441;51.192;6.788;2023-05-10T07:01:24;23.40;93.50
909;DHT22;441;51.192;6.788;2023-05-10T07:03:51;23.40;93.40
909;DHT22;441;51.192;6.788;2023-05-10T07:06:18;23.40;94.00
909;DHT22;441;51.192;6.788;2023-05-10T07:08:46;23.50;93.80
909;DHT22;441;51.192;6.788;2023-05-10T07:11:13;23.50;94.10
909;DHT22;441;51.192;6.788;2023-05-10T07:13:40;23.50;94.00
909;DHT22;441;51.192;6.788;2023-05-10T07:16:09;23.40;94.00
909;DHT22;441;51.192;6.788;2023-05-10T07:18:36;23.40;94.20
909;DHT22;441;51.192;6.788;2023-05-10T07:21:03;23.40;94.20
909;DHT22;441;51.192;6.788;2023-05-10T07:23:30;23.40;94.40
909;DHT22;441;51.192;6.788;2023-05-10T07:25:58;23.50;94.10
909;DHT22;441;51.192;6.788;2023-05-10T07:28:25;23.50;93.80
909;DHT22;441;51.192;6.788;2023-05-10T07:30:52;23.60;93.70
909;DHT22;441;51.192;6.788;2023-05-10T07:33:19;23.50;93.70
909;DHT22;441;51.192;6.788;2023-05-10T07:35:46;23.60;93.80
909;DHT22;441;51.192;6.788;2023-05-10T07:38:13;23.60;93.80
909;DHT22;441;51.192;6.788;2023-05-10T07:40:40;23.60;93.90
909;DHT22;441;51.192;6.788;2023-05-10T07:43:08;23.60;93.70
909;DHT22;441;51.192;6.788;2023-05-10T07:45:35;23.50;93.70
909;DHT22;441;51.192;6.788;2023-05-10T07:48:02;23.50;93.80
909;DHT22;441;51.192;6.788;2023-05-10T07:50:29;23.50;93.80
909;DHT22;441;51.192;6.788;2023-05-10T07:52:56;23.50;93.60
909;DHT22;441;51.192;6.788;2023-05-10T07:55:23;23.50;93.80
909;DHT22;441;51.192;6.788;2023-05-10T07:57:50;23.50;93.50
909;DHT22;441;51.192;6.788;2023-05-10T08:00:19;23.50;93.60
909;DHT22;441;51.192;6.788;2023-05-10T08:02:47;23.50;93.70
909;DHT22;441;51.192;6.788;2023-05-10T08:05:14;23.50;93.80
909;DHT22;441;51.192;6.788;2023-05-10T08:07:41;23.50;93.60
909;DHT22;441;51.192;6.788;2023-05-10T08:10:09;23.60;94.60
909;DHT22;441;51.192;6.788;2023-05-10T08:12:37;23.60;94.40
909;DHT22;441;51.192;6.788;2023-05-10T08:15:06;23.60;94.60
909;DHT22;441;51.192;6.788;2023-05-10T08:17:34;23.60;94.30
909;DHT22;441;51.192;6.788;2023-05-10T08:20:01;23.60;94.00
909;DHT22;441;51.192;6.788;2023-05-10T08:22:28;23.70;94.20
909;DHT22;441;51.192;6.788;2023-05-10T08:24:55;23.60;94.00
909;DHT22;441;51.192;6.788;2023-05-10T08:27:22;23.60;94.20
909;DHT22;441;51.192;6.788;2023-05-10T08:29:49;23.70;94.10
909;DHT22;441;51.192;6.788;2023-05-10T08:32:16;23.70;94.30
909;DHT22;441;51.192;6.788;2023-05-10T08:34:44;23.70;94.20
909;DHT22;441;51.192;6.788;2023-05-10T08:37:12;23.70;93.80
909;DHT22;441;51.192;6.788;2023-05-10T08:39:38;23.70;93.70
909;DHT22;441;51.192;6.788;2023-05-10T08:42:06;23.60;94.10
909;DHT22;441;51.192;6.788;2023-05-10T08:44:35;23.70;94.40
909;DHT22;441;51.192;6.788;2023-05-10T08:47:05;23.60;94.50
909;DHT22;441;51.192;6.788;2023-05-10T08:49:33;23.70;94.80
909;DHT22;441;51.192;6.788;2023-05-10T08:52:03;23.60;94.80
909;DHT22;441;51.192;6.788;2023-05-10T08:54:32;23.60;94.70
909;DHT22;441;51.192;6.788;2023-05-10T08:56:59;23.50;94.90
909;DHT22;441;51.192;6.788;2023-05-10T08:59:27;23.60;95.10
909;DHT22;441;51.192;6.788;2023-05-10T09:01:56;23.60;94.50
909;DHT22;441;51.192;6.788;2023-05-10T09:04:24;23.70;94.80
909;DHT22;441;51.192;6.788;2023-05-10T09:06:51;23.70;95.40
909;DHT22;441;51.192;6.788;2023-05-10T09:09:20;23.70;95.50
909;DHT22;441;51.192;6.788;2023-05-10T09:11:48;23.70;95.50
909;DHT22;441;51.192;6.788;2023-05-10T09:14:15;23.60;95.50
909;DHT22;441;51.192;6.788;2023-05-10T09:16:43;23.60;95.70
909;DHT22;441;51.192;6.788;2023-05-10T09:19:10;23.70;95.40
909;DHT22;441;51.192;6.788;2023-05-10T09:21:37;23.70;95.10
909;DHT22;441;51.192;6.788;2023-05-10T09:24:05;23.60;95.10
909;DHT22;441;51.192;6.788;2023-05-10T09:26:34;23.70;95.50
909;DHT22;441;51.192;6.788;2023-05-10T09:29:02;23.70;94.80
909;DHT22;441;51.192;6.788;2023-05-10T09:31:46;23.70;95.10
909;DHT22;441;51.192;6.788;2023-05-10T09:34:17;23.70;94.50
909;DHT22;441;51.192;6.788;2023-05-10T09:36:55;23.70;94.60
909;DHT22;441;51.192;6.788;2023-05-10T09:39:30;23.70;94.20
909;DHT22;441;51.192;6.788;2023-05-10T09:42:01;23.70;94.30
909;DHT22;441;51.192;6.788;2023-05-10T09:44:32;23.60;94.40
909;DHT22;441;51.192;6.788;2023-05-10T09:47:00;23.60;94.70
909;DHT22;441;51.192;6.788;2023-05-10T09:49:27;23.60;95.00
909;DHT22;441;51.192;6.788;2023-05-10T09:52:01;23.60;94.60
909;DHT22;441;51.192;6.788;2023-05-10T09:54:29;23.70;94.80
909;DHT22;441;51.192;6.788;2023-05-10T09:56:56;23.70;94.70
909;DHT22;441;51.192;6.788;2023-05-10T09:59:26;23.70;94.70
909;DHT22;441;51.192;6.788;2023-05-10T10:01:56;23.70;95.60
909;DHT22;441;51.192;6.788;2023-05-10T10:04:23;23.80;95.60
909;DHT22;441;51.192;6.788;2023-05-10T10:06:59;23.70;95.40
909;DHT22;441;51.192;6.788;2023-05-10T10:09:27;23.70;95.30
909;DHT22;441;51.192;6.788;2023-05-10T10:11:54;23.70;95.20
909;DHT22;441;51.192;6.788;2023-05-10T10:14:22;23.70;95.10
909;DHT22;441;51.192;6.788;2023-05-10T10:16:51;23.60;95.00
909;DHT22;441;51.192;6.788;2023-05-10T10:19:18;23.60;94.80
909;DHT22;441;51.192;6.788;2023-05-10T10:21:45;23.70;94.90
909;DHT22;441;51.192;6.788;2023-05-10T10:24:13;23.70;95.00
909;DHT22;441;51.192;6.788;2023-05-10T10:26:41;23.70;94.70
909;DHT22;441;51.192;6.788;2023-05-10T10:29:18;23.70;94.80
909;DHT22;441;51.192;6.788;2023-05-10T10:31:55;23.70;94.80
909;DHT22;441;51.192;6.788;2023-05-10T10:34:26;23.70;93.70
909;DHT22;441;51.192;6.788;2023-05-10T10:36:55;23.70;93.80
909;DHT22;441;51.192;6.788;2023-05-10T10:39:23;23.70;93.70
909;DHT22;441;51.192;6.788;2023-05-10T10:53:54;23.70;93.60
909;DHT22;441;51.192;6.788;2023-05-10T10:56:22;23.90;93.60
909;DHT22;441;51.192;6.788;2023-05-10T10:58:51;23.90;93.40
909;DHT22;441;51.192;6.788;2023-05-10T11:01:19;23.90;93.40
909;DHT22;441;51.192;6.788;2023-05-10T11:04:16;23.90;93.30
909;DHT22;441;51.192;6.788;2023-05-10T11:06:43;23.80;93.30
909;DHT22;441;51.192;6.788;2023-05-10T11:09:12;23.90;93.50
909;DHT22;441;51.192;6.788;2023-05-10T11:11:48;23.80;93.70
909;DHT22;441;51.192;6.788;2023-05-10T11:14:19;23.80;93.90
909;DHT22;441;51.192;6.788;2023-05-10T11:16:47;23.80;93.90
909;DHT22;441;51.192;6.788;2023-05-10T11:19:14;23.80;93.80
909;DHT22;441;51.192;6.788;2023-05-10T11:21:46;23.80;93.60
909;DHT22;441;51.192;6.788;2023-05-10T11:24:17;23.80;93.80
909;DHT22;441;51.192;6.788;2023-05-10T11:26:44;23.70;93.80
909;DHT22;441;51.192;6.788;2023-05-10T11:29:12;23.70;94.20
909;DHT22;441;51.192;6.788;2023-05-10T11:31:42;23.70;93.90
909;DHT22;441;51.192;6.788;2023-05-10T11:34:10;23.80;93.90
909;DHT22;441;51.192;6.788;2023-05-10T11:36:38;23.70;94.00
909;DHT22;441;51.192;6.788;2023-05-10T11:39:05;23.70;93.90
909;DHT22;441;51.192;6.788;2023-05-10T11:41:33;23.70;93.90
909;DHT22;441;51.192;6.788;2023-05-10T11:44:01;23.80;94.10
909;DHT22;441;51.192;6.788;2023-05-10T11:46:29;23.80;93.60
909;DHT22;441;51.192;6.788;2023-05-10T11:48:58;23.80;92.70
909;DHT22;441;51.192;6.788;2023-05-10T11:51:26;23.80;92.80
909;DHT22;441;51.192;6.788;2023-05-10T11:53:54;23.80;93.20
909;DHT22;441;51.192;6.788;2023-05-10T11:56:22;23.80;93.40
909;DHT22;441;51.192;6.788;2023-05-10T11:58:54;23.80;93.40
909;DHT22;441;51.192;6.788;2023-05-10T12:01:22;23.90;93.20
909;DHT22;441;51.192;6.788;2023-05-10T12:03:50;23.90;93.40
909;DHT22;441;51.192;6.788;2023-05-10T12:06:18;23.90;93.50
909;DHT22;441;51.192;6.788;2023-05-10T12:08:47;24.00;93.70
909;DHT22;441;51.192;6.788;2023-05-10T12:11:18;24.00;93.50
909;DHT22;441;51.192;6.788;2023-05-10T12:13:46;23.90;93.70
909;DHT22;441;51.192;6.788;2023-05-10T12:16:17;23.90;93.60
909;DHT22;441;51.192;6.788;2023-05-10T12:18:44;23.80;93.70
909;DHT22;441;51.192;6.788;2023-05-10T12:21:12;23.80;93.40
909;DHT22;441;51.192;6.788;2023-05-10T12:23:39;23.80;93.40
909;DHT22;441;51.192;6.788;2023-05-10T12:26:09;23.90;93.30
909;DHT22;441;51.192;6.788;2023-05-10T12:28:37;23.90;93.40
909;DHT22;441;51.192;6.788;2023-05-10T12:31:05;23.80;93.20
909;DHT22;441;51.192;6.788;2023-05-10T12:33:39;23.80;93.30
909;DHT22;441;51.192;6.788;2023-05-10T12:36:08;23.80;93.30
909;DHT22;441;51.192;6.788;2023-05-10T12:38:36;23.90;93.30
909;DHT22;441;51.192;6.788;2023-05-10T12:41:07;23.80;93.20
909;DHT22;441;51.192;6.788;2023-05-10T12:43:35;23.90;93.40
909;DHT22;441;51.192;6.788;2023-05-10T12:46:06;23.90;93.10
909;DHT22;441;51.192;6.788;2023-05-10T12:48:34;23.90;93.10
909;DHT22;441;51.192;6.788;2023-05-10T12:51:03;23.80;93.00
909;DHT22;441;51.192;6.788;2023-05-10T12:53:31;23.80;93.30
909;DHT22;441;51.192;6.788;2023-05-10T12:55:58;23.80;93.30
909;DHT22;441;51.192;6.788;2023-05-10T12:58:24;23.80;93.20
909;DHT22;441;51.192;6.788;2023-05-10T13:00:52;23.80;93.30
909;DHT22;441;51.192;6.788;2023-05-10T13:03:19;23.90;93.60
909;DHT22;441;51.192;6.788;2023-05-10T13:05:46;23.80;93.30
909;DHT22;441;51.192;6.788;2023-05-10T13:08:14;23.80;93.30
909;DHT22;441;51.192;6.788;2023-05-10T13:10:42;23.80;93.30
909;DHT22;441;51.192;6.788;2023-05-10T13:13:08;23.90;93.20
909;DHT22;441;51.192;6.788;2023-05-10T13:15:36;23.90;93.20
909;DHT22;441;51.192;6.788;2023-05-10T13:18:03;24.00;93.00
909;DHT22;441;51.192;6.788;2023-05-10T13:20:30;23.90;92.80
909;DHT22;441;51.192;6.788;2023-05-10T13:22:57;23.90;93.10
909;DHT22;441;51.192;6.788;2023-05-10T13:25:25;23.90;92.80
909;DHT22;441;51.192;6.788;2023-05-10T13:27:52;23.90;92.70
909;DHT22;441;51.192;6.788;2023-05-10T13:30:19;23.90;92.70
909;DHT22;441;51.192;6.788;2023-05-10T13:32:46;24.00;92.70
909;DHT22;441;51.192;6.788;2023-05-10T13:35:13;24.00;92.70
909;DHT22;441;51.192;6.788;2023-05-10T13:37:40;23.90;92.70
909;DHT22;441;51.192;6.788;2023-05-10T13:40:07;23.90;92.60
909;DHT22;441;51.192;6.788;2023-05-10T13:42:36;24.00;92.60
909;DHT22;441;51.192;6.788;2023-05-10T13:45:04;24.00;92.60
909;DHT22;441;51.192;6.788;2023-05-10T13:47:31;24.00;92.50
909;DHT22;441;51.192;6.788;2023-05-10T13:49:58;24.00;92.50
909;DHT22;441;51.192;6.788;2023-05-10T13:52:25;24.00;92.50
909;DHT22;441;51.192;6.788;2023-05-10T13:54:52;24.00;92.50
909;DHT22;441;51.192;6.788;2023-05-10T13:57:21;24.00;92.50
909;DHT22;441;51.192;6.788;2023-05-10T13:59:51;24.00;92.40
909;DHT22;441;51.192;6.788;2023-05-10T14:02:18;24.00;92.40
909;DHT22;441;51.192;6.788;2023-05-10T14:04:45;24.00;92.30
909;DHT22;441;51.192;6.788;2023-05-10T14:07:12;24.00;92.30
909;DHT22;441;51.192;6.788;2023-05-10T14:09:40;24.10;92.30
909;DHT22;441;51.192;6.788;2023-05-10T14:12:06;24.00;92.20
909;DHT22;441;51.192;6.788;2023-05-10T14:14:33;24.10;92.30
909;DHT22;441;51.192;6.788;2023-05-10T14:17:02;24.00;92.30
909;DHT22;441;51.192;6.788;2023-05-10T14:19:29;24.10;92.20
909;DHT22;441;51.192;6.788;2023-05-10T14:21:57;24.10;92.20
909;DHT22;441;51.192;6.788;2023-05-10T14:24:24;24.10;92.20
909;DHT22;441;51.192;6.788;2023-05-10T14:26:51;24.10;92.20
909;DHT22;441;51.192;6.788;2023-05-10T14:29:19;24.10;92.50
909;DHT22;441;51.192;6.788;2023-05-10T14:31:46;24.00;92.20
909;DHT22;441;51.192;6.788;2023-05-10T14:34:14;24.10;92.30
909;DHT22;441;51.192;6.788;2023-05-10T14:36:42;24.00;92.30
909;DHT22;441;51.192;6.788;2023-05-10T14:39:09;24.00;92.40
909;DHT22;441;51.192;6.788;2023-05-10T14:41:38;24.10;92.50
909;DHT22;441;51.192;6.788;2023-05-10T14:44:06;24.10;92.50
909;DHT22;441;51.192;6.788;2023-05-10T14:46:33;24.10;92.60
909;DHT22;441;51.192;6.788;2023-05-10T14:49:01;24.10;92.60
909;DHT22;441;51.192;6.788;2023-05-10T14:51:29;24.10;92.50
909;DHT22;441;51.192;6.788;2023-05-10T14:53:58;24.00;92.50
909;DHT22;441;51.192;6.788;2023-05-10T14:56:25;24.00;92.70
909;DHT22;441;51.192;6.788;2023-05-10T14:58:53;24.00;92.80
909;DHT22;441;51.192;6.788;2023-05-10T15:01:20;24.00;92.70
909;DHT22;441;51.192;6.788;2023-05-10T15:03:47;24.10;92.60
909;DHT22;441;51.192;6.788;2023-05-10T15:06:14;24.10;92.50
909;DHT22;441;51.192;6.788;2023-05-10T15:08:43;24.10;92.50
909;DHT22;441;51.192;6.788;2023-05-10T15:11:10;24.20;92.50
909;DHT22;441;51.192;6.788;2023-05-10T15:13:37;24.20;92.20
909;DHT22;441;51.192;6.788;2023-05-10T15:16:04;24.30;92.20
909;DHT22;441;51.192;6.788;2023-05-10T15:18:31;24.20;92.20
909;DHT22;441;51.192;6.788;2023-05-10T15:20:58;24.30;91.30
909;DHT22;441;51.192;6.788;2023-05-10T15:23:25;24.30;91.40
909;DHT22;441;51.192;6.788;2023-05-10T15:25:53;24.30;90.70
909;DHT22;441;51.192;6.788;2023-05-10T15:28:21;24.30;90.50
909;DHT22;441;51.192;6.788;2023-05-10T15:30:48;24.30;90.20
909;DHT22;441;51.192;6.788;2023-05-10T15:33:15;24.40;90.50
909;DHT22;441;51.192;6.788;2023-05-10T15:35:42;24.40;90.70
909;DHT22;441;51.192;6.788;2023-05-10T15:38:09;24.50;90.60
909;DHT22;441;51.192;6.788;2023-05-10T15:40:37;24.40;90.10
909;DHT22;441;51.192;6.788;2023-05-10T15:43:05;24.30;89.80
909;DHT22;441;51.192;6.788;2023-05-10T15:45:32;24.30;90.00
909;DHT22;441;51.192;6.788;2023-05-10T15:47:59;24.40;90.30
909;DHT22;441;51.192;6.788;2023-05-10T15:50:26;24.40;89.40
909;DHT22;441;51.192;6.788;2023-05-10T15:52:53;24.30;89.40
909;DHT22;441;51.192;6.788;2023-05-10T15:55:20;24.30;89.40
909;DHT22;441;51.192;6.788;2023-05-10T15:57:47;24.20;89.10
909;DHT22;441;51.192;6.788;2023-05-10T16:00:16;24.20;89.30
909;DHT22;441;51.192;6.788;2023-05-10T16:02:44;24.20;89.90
909;DHT22;441;51.192;6.788;2023-05-10T16:05:12;24.10;90.00
909;DHT22;441;51.192;6.788;2023-05-10T16:07:39;24.10;90.70
909;DHT22;441;51.192;6.788;2023-05-10T16:10:08;24.20;90.40
909;DHT22;441;51.192;6.788;2023-05-10T16:12:35;24.20;90.40
909;DHT22;441;51.192;6.788;2023-05-10T16:15:03;24.10;90.00
909;DHT22;441;51.192;6.788;2023-05-10T16:17:31;24.10;89.30
909;DHT22;441;51.192;6.788;2023-05-10T16:19:58;24.20;89.10
909;DHT22;441;51.192;6.788;2023-05-10T16:22:25;24.10;90.00
909;DHT22;441;51.192;6.788;2023-05-10T16:24:53;24.10;87.80
909;DHT22;441;51.192;6.788;2023-05-10T16:27:20;23.90;88.30
909;DHT22;441;51.192;6.788;2023-05-10T16:29:47;23.90;90.50
909;DHT22;441;51.192;6.788;2023-05-10T16:32:14;24.00;90.70
909;DHT22;441;51.192;6.788;2023-05-10T16:34:42;24.00;89.60
909;DHT22;441;51.192;6.788;2023-05-10T16:37:09;24.10;89.70
909;DHT22;441;51.192;6.788;2023-05-10T16:39:36;24.20;90.10
909;DHT22;441;51.192;6.788;2023-05-10T16:42:03;24.10;87.80
909;DHT22;441;51.192;6.788;2023-05-10T16:44:30;23.90;85.60
909;DHT22;441;51.192;6.788;2023-05-10T16:46:57;23.90;84.70
909;DHT22;441;51.192;6.788;2023-05-10T16:49:24;23.90;83.50
909;DHT22;441;51.192;6.788;2023-05-10T16:51:52;23.80;83.40
909;DHT22;441;51.192;6.788;2023-05-10T16:54:19;23.70;83.50
909;DHT22;441;51.192;6.788;2023-05-10T16:56:46;23.70;82.80